createdAt,value
2022-09-06T00:00:08.071Z,100853.19
2022-09-06T00:02:36.152Z,100852.31
2022-09-06T00:05:04.779Z,100855.88
2022-09-06T00:07:31.983Z,100844.81
2022-09-06T00:09:58.814Z,100846.03
2022-09-06T00:12:26.105Z,100836.87
2022-09-06T00:14:53.018Z,100845.34
2022-09-06T00:17:20.465Z,100837.78
2022-09-06T00:19:47.296Z,100840.87
2022-09-06T00:22:14.154Z,100841.53
2022-09-06T00:24:41.212Z,100832.28
2022-09-06T00:27:08.926Z,100831.62
2022-09-06T00:29:35.885Z,100830.28
2022-09-06T00:32:03.127Z,100832.12
2022-09-06T00:34:30.018Z,100833.91
2022-09-06T00:36:57.029Z,100837.13
2022-09-06T00:39:23.835Z,100837.31
2022-09-06T00:41:50.754Z,100831.00
2022-09-06T00:44:17.588Z,100834.53
2022-09-06T00:46:46.652Z,100833.91
2022-09-06T00:49:24.488Z,100830.56
2022-09-06T00:51:55.683Z,100832.09
2022-09-06T00:54:22.717Z,100822.31
2022-09-06T00:56:50.445Z,100831.50
2022-09-06T00:59:17.949Z,100831.84
2022-09-06T01:01:44.760Z,100827.97
2022-09-06T01:04:12.032Z,100830.91
2022-09-06T01:07:03.260Z,100828.88
2022-09-06T01:10:01.456Z,100830.06
2022-09-06T01:12:42.554Z,100830.19
2022-09-06T01:15:25.990Z,100829.94
2022-09-06T01:17:52.627Z,100835.84
2022-09-06T01:20:28.177Z,100835.88
2022-09-06T01:23:13.655Z,100828.50
2022-09-06T01:25:43.363Z,100830.28
2022-09-06T01:28:28.943Z,100832.47
2022-09-06T01:31:11.741Z,100839.59
2022-09-06T01:33:46.280Z,100829.63
2022-09-06T01:36:17.601Z,100831.50
2022-09-06T01:38:44.553Z,100834.50
2022-09-06T01:41:11.466Z,100828.38
2022-09-06T01:43:41.420Z,100826.31
2022-09-06T01:46:44.228Z,100825.75
2022-09-06T01:49:40.072Z,100817.31
2022-09-06T01:52:19.826Z,100818.16
2022-09-06T01:54:49.399Z,100817.56
2022-09-06T01:57:37.672Z,100818.88
2022-09-06T02:00:19.730Z,100821.47
2022-09-06T02:02:46.378Z,100818.28
2022-09-06T02:05:38.254Z,100825.22
2022-09-06T02:08:17.587Z,100826.91
2022-09-06T02:11:04.345Z,100826.13
2022-09-06T02:13:38.498Z,100822.50
2022-09-06T02:16:07.676Z,100817.22
2022-09-06T02:18:40.758Z,100813.19
2022-09-06T02:21:10.589Z,100819.03
2022-09-06T02:23:40.581Z,100811.09
2022-09-06T02:26:13.337Z,100810.09
2022-09-06T02:28:40.360Z,100815.44
2022-09-06T02:31:18.507Z,100811.22
2022-09-06T02:33:47.375Z,100812.87
2022-09-06T02:36:16.011Z,100814.56
2022-09-06T02:38:45.237Z,100799.16
2022-09-06T02:41:14.296Z,100803.28
2022-09-06T02:43:43.608Z,100798.69
2022-09-06T02:46:10.656Z,100802.31
2022-09-06T02:48:37.479Z,100800.28
2022-09-06T02:51:05.763Z,100798.56
2022-09-06T02:53:33.109Z,100797.44
2022-09-06T02:56:00.125Z,100797.84
2022-09-06T02:58:27.513Z,100791.66
2022-09-06T03:00:54.403Z,100794.59
2022-09-06T03:03:22.206Z,100794.78
2022-09-06T03:05:53.541Z,100802.41
2022-09-06T03:08:22.181Z,100802.28
2022-09-06T03:10:53.980Z,100788.81
2022-09-06T03:13:21.218Z,100792.28
2022-09-06T03:15:59.735Z,100793.69
2022-09-06T03:18:29.799Z,100793.03
2022-09-06T03:20:57.725Z,100784.25
2022-09-06T03:23:26.902Z,100792.53
2022-09-06T03:25:53.906Z,100791.94
2022-09-06T03:28:21.546Z,100788.38
2022-09-06T03:30:50.241Z,100789.47
2022-09-06T03:33:18.162Z,100778.88
2022-09-06T03:35:52.625Z,100774.41
2022-09-06T03:38:19.623Z,100776.06
2022-09-06T03:40:49.715Z,100786.56
2022-09-06T03:43:18.189Z,100784.91
2022-09-06T03:45:47.027Z,100788.19
2022-09-06T03:48:14.203Z,100788.44
2022-09-06T03:50:45.813Z,100799.47
2022-09-06T03:53:12.795Z,100791.28
2022-09-06T03:55:39.627Z,100796.72
2022-09-06T03:58:06.366Z,100792.47
2022-09-06T04:00:33.768Z,100797.06
2022-09-06T04:03:01.904Z,100800.78
2022-09-06T04:05:28.908Z,100798.78
2022-09-06T04:07:55.634Z,100796.31
2022-09-06T04:10:22.409Z,100799.59
2022-09-06T04:12:49.157Z,100802.66
2022-09-06T04:15:16.029Z,100805.44
2022-09-06T04:17:46.508Z,100796.31
2022-09-06T04:20:15.096Z,100792.41
2022-09-06T04:22:42.198Z,100797.94
2022-09-06T04:25:09.588Z,100783.81
2022-09-06T04:27:36.563Z,100785.84
2022-09-06T04:30:03.887Z,100786.19
2022-09-06T04:32:32.794Z,100796.87
2022-09-06T04:34:59.554Z,100790.91
2022-09-06T04:37:26.456Z,100793.84
2022-09-06T04:39:53.350Z,100795.72
2022-09-06T04:42:20.169Z,100796.28
2022-09-06T04:44:47.110Z,100788.84
2022-09-06T04:47:16.030Z,100783.28
2022-09-06T04:49:43.318Z,100792.56
2022-09-06T04:52:10.371Z,100788.56
2022-09-06T04:54:37.373Z,100795.78
2022-09-06T04:57:04.236Z,100797.25
2022-09-06T04:59:30.958Z,100793.00
2022-09-06T05:01:57.692Z,100794.28
2022-09-06T05:04:25.056Z,100792.38
2022-09-06T05:07:05.404Z,100795.63
2022-09-06T05:09:33.334Z,100803.78
2022-09-06T05:12:01.012Z,100792.53
2022-09-06T05:14:28.894Z,100788.88
2022-09-06T05:16:56.066Z,100784.94
2022-09-06T05:19:23.271Z,100783.19
2022-09-06T05:21:51.633Z,100791.72
2022-09-06T05:24:18.541Z,100791.19
2022-09-06T05:26:45.417Z,100801.94
2022-09-06T05:29:12.347Z,100794.75
2022-09-06T05:31:39.354Z,100794.03
2022-09-06T05:34:06.195Z,100791.75
2022-09-06T05:36:33.531Z,100782.81
2022-09-06T05:39:00.437Z,100779.34
2022-09-06T05:41:27.897Z,100778.12
2022-09-06T05:43:55.056Z,100787.31
2022-09-06T05:46:21.980Z,100785.13
2022-09-06T05:48:58.138Z,100790.28
2022-09-06T05:51:24.874Z,100783.75
2022-09-06T05:53:51.647Z,100778.53
2022-09-06T05:56:19.268Z,100780.34
2022-09-06T05:58:46.182Z,100781.28
2022-09-06T06:01:15.994Z,100777.53
2022-09-06T06:03:43.624Z,100789.06
2022-09-06T06:06:10.591Z,100793.28
2022-09-06T06:08:37.404Z,100790.19
2022-09-06T06:11:04.474Z,100789.91
2022-09-06T06:13:35.113Z,100789.97
2022-09-06T06:16:03.411Z,100792.19
2022-09-06T06:18:30.236Z,100782.09
2022-09-06T06:21:21.833Z,100782.16
2022-09-06T06:23:58.332Z,100782.97
2022-09-06T06:26:26.931Z,100783.97
2022-09-06T06:28:54.160Z,100789.34
2022-09-06T06:31:22.785Z,100784.81
2022-09-06T06:33:50.479Z,100785.38
2022-09-06T06:36:17.160Z,100776.53
2022-09-06T06:38:46.799Z,100782.06
2022-09-06T06:41:16.533Z,100785.22
2022-09-06T06:43:43.537Z,100786.19
2022-09-06T06:46:13.894Z,100784.72
2022-09-06T06:48:41.818Z,100785.69
2022-09-06T06:51:09.671Z,100783.47
2022-09-06T06:53:37.079Z,100783.56
2022-09-06T06:56:20.300Z,100784.59
2022-09-06T06:58:49.119Z,100774.19
2022-09-06T07:01:20.984Z,100770.62
2022-09-06T07:03:48.836Z,100770.72
2022-09-06T07:06:15.781Z,100763.47
2022-09-06T07:08:44.235Z,100763.31
2022-09-06T07:11:12.813Z,100759.09
2022-09-06T07:13:39.760Z,100762.16
2022-09-06T07:16:13.880Z,100761.94
2022-09-06T07:18:42.475Z,100766.09
2022-09-06T07:24:08.531Z,100783.38
2022-09-06T07:26:38.548Z,100776.16
2022-09-06T07:29:07.464Z,100778.84
2022-09-06T07:34:22.474Z,100782.84
2022-09-06T07:36:52.996Z,100783.09
2022-09-06T07:39:19.824Z,100786.37
2022-09-06T07:41:49.121Z,100791.12
2022-09-06T07:44:16.279Z,100783.84
2022-09-06T07:46:43.246Z,100769.88
2022-09-06T07:49:10.031Z,100778.09
2022-09-06T07:51:37.039Z,100771.19
2022-09-06T07:54:29.384Z,100774.09
2022-09-06T07:56:51.802Z,100776.34
2022-09-06T07:59:18.791Z,100777.88
2022-09-06T08:01:47.703Z,100782.72
2022-09-06T08:04:14.959Z,100776.47
2022-09-06T08:09:33.815Z,100780.56
2022-09-06T08:12:06.983Z,100772.66
2022-09-06T08:14:35.475Z,100771.03
2022-09-06T08:20:44.562Z,100771.91
2022-09-06T08:23:11.505Z,100769.44
2022-09-06T08:25:38.401Z,100770.91
2022-09-06T08:28:05.402Z,100779.94
2022-09-06T08:30:33.688Z,100779.19
2022-09-06T08:33:00.722Z,100767.84
2022-09-06T08:35:27.888Z,100763.56
2022-09-06T08:37:58.253Z,100762.41
2022-09-06T08:40:25.725Z,100760.03
2022-09-06T08:42:52.843Z,100755.16
2022-09-06T08:45:20.036Z,100760.78
2022-09-06T08:47:46.904Z,100764.28
2022-09-06T08:50:13.731Z,100754.66
2022-09-06T08:53:18.715Z,100739.13
2022-09-06T08:55:55.847Z,100737.81
2022-09-06T08:58:59.637Z,100734.28
2022-09-06T09:01:36.482Z,100730.50
2022-09-06T09:04:05.597Z,100726.31
2022-09-06T09:06:33.263Z,100724.66
2022-09-06T09:09:13.480Z,100725.06
2022-09-06T09:11:46.207Z,100724.84
2022-09-06T09:14:16.786Z,100724.72
2022-09-06T09:16:44.304Z,100720.91
2022-09-06T09:19:11.361Z,100718.94
2022-09-06T09:21:40.383Z,100716.16
2022-09-06T09:24:08.813Z,100713.84
2022-09-06T09:26:51.218Z,100714.19
2022-09-06T09:29:20.815Z,100707.97
2022-09-06T09:31:53.818Z,100707.91
2022-09-06T09:34:34.035Z,100712.91
2022-09-06T09:40:18.049Z,100712.56
2022-09-06T09:42:45.169Z,100709.00
2022-09-06T09:45:21.299Z,100702.94
2022-09-06T09:47:48.298Z,100692.91
2022-09-06T09:50:30.431Z,100690.56
2022-09-06T09:53:09.405Z,100677.47
2022-09-06T09:55:36.985Z,100678.22
2022-09-06T09:58:05.170Z,100671.16
2022-09-06T10:00:36.446Z,100665.69
2022-09-06T10:03:26.778Z,100667.75
2022-09-06T10:06:03.451Z,100664.19
2022-09-06T10:08:34.153Z,100660.75
2022-09-06T10:11:01.424Z,100663.25
2022-09-06T10:13:30.612Z,100653.56
2022-09-06T10:16:00.185Z,100648.69
2022-09-06T10:18:36.816Z,100649.28
2022-09-06T10:21:13.205Z,100654.50
2022-09-06T10:26:55.565Z,100641.13
2022-09-06T10:29:40.077Z,100645.44
2022-09-06T10:32:32.923Z,100640.03
2022-09-06T10:35:19.040Z,100648.88
2022-09-06T10:37:49.101Z,100640.91
2022-09-06T10:40:29.450Z,100639.69
2022-09-06T10:42:59.469Z,100627.63
2022-09-06T10:46:05.345Z,100637.88
2022-09-06T10:48:45.175Z,100630.44
2022-09-06T10:51:40.114Z,100631.34
2022-09-06T10:54:12.138Z,100638.62
2022-09-06T10:56:44.975Z,100636.87
2022-09-06T10:59:38.446Z,100638.34
2022-09-06T11:02:34.008Z,100642.62
2022-09-06T11:10:51.602Z,100628.09
2022-09-06T11:13:20.514Z,100619.72
2022-09-06T11:15:59.375Z,100616.03
2022-09-06T11:18:49.706Z,100607.56
2022-09-06T11:21:44.133Z,100606.13
2022-09-06T11:24:15.517Z,100600.34
2022-09-06T11:27:06.229Z,100601.06
2022-09-06T11:29:35.800Z,100590.91
2022-09-06T11:32:24.145Z,100590.91
2022-09-06T11:34:57.034Z,100591.84
2022-09-06T11:37:33.469Z,100596.75
2022-09-06T11:42:52.042Z,100583.91
2022-09-06T11:45:50.608Z,100588.03
2022-09-06T11:48:23.769Z,100569.94
2022-09-06T11:50:59.589Z,100572.19
2022-09-06T11:53:31.282Z,100569.72
2022-09-06T11:56:01.102Z,100569.13
2022-09-06T11:58:53.484Z,100568.59
2022-09-06T12:01:20.965Z,100568.09
2022-09-06T12:06:37.025Z,100567.50
2022-09-06T12:09:28.156Z,100562.94
2022-09-06T12:11:56.802Z,100562.37
2022-09-06T12:14:43.719Z,100559.84
2022-09-06T12:17:11.641Z,100558.41
2022-09-06T12:19:50.206Z,100546.97
2022-09-06T12:22:40.548Z,100549.16
2022-09-06T12:25:08.170Z,100550.28
2022-09-06T12:27:40.408Z,100550.47
2022-09-06T12:30:11.912Z,100544.12
2022-09-06T12:32:44.192Z,100543.91
2022-09-06T12:38:24.453Z,100534.06
2022-09-06T12:40:56.553Z,100534.00
2022-09-06T12:43:23.401Z,100528.03
2022-09-06T12:45:52.648Z,100523.91
2022-09-06T12:48:35.487Z,100521.91
2022-09-06T12:51:02.664Z,100532.56
2022-09-06T12:53:31.707Z,100519.13
2022-09-06T12:56:06.675Z,100520.91
2022-09-06T12:58:34.267Z,100511.63
2022-09-06T13:01:26.245Z,100508.59
2022-09-06T13:04:02.935Z,100506.38
2022-09-06T13:06:34.072Z,100494.53
2022-09-06T13:09:02.033Z,100489.66
2022-09-06T13:11:38.825Z,100491.97
2022-09-06T13:14:14.692Z,100497.22
2022-09-06T13:16:51.163Z,100488.22
2022-09-06T13:19:30.064Z,100485.66
2022-09-06T13:22:00.489Z,100480.34
2022-09-06T13:24:46.608Z,100472.69
2022-09-06T13:27:27.866Z,100474.50
2022-09-06T13:30:07.132Z,100461.66
2022-09-06T13:32:35.706Z,100458.13
2022-09-06T13:35:03.786Z,100469.56
2022-09-06T13:37:34.021Z,100459.75
2022-09-06T13:40:05.817Z,100456.03
2022-09-06T13:42:34.062Z,100454.94
2022-09-06T13:45:23.852Z,100462.88
2022-09-06T13:47:50.659Z,100457.75
2022-09-06T13:50:17.505Z,100462.06
2022-09-06T13:52:44.507Z,100459.81
2022-09-06T13:55:17.006Z,100463.47
2022-09-06T13:57:44.530Z,100459.12
2022-09-06T14:00:13.405Z,100461.84
2022-09-06T14:02:41.222Z,100460.31
2022-09-06T14:05:08.784Z,100458.78
2022-09-06T14:07:35.785Z,100453.28
2022-09-06T14:10:03.002Z,100451.69
2022-09-06T14:12:29.896Z,100454.09
2022-09-06T14:14:56.662Z,100439.00
2022-09-06T14:17:23.499Z,100442.84
2022-09-06T14:19:51.122Z,100438.09
2022-09-06T14:22:17.893Z,100435.94
2022-09-06T14:24:44.774Z,100435.09
2022-09-06T14:27:11.806Z,100428.81
2022-09-06T14:29:38.705Z,100439.38
2022-09-06T14:32:05.807Z,100441.13
2022-09-06T14:34:32.863Z,100424.34
2022-09-06T14:37:00.401Z,100419.84
2022-09-06T14:39:27.808Z,100426.56
2022-09-06T14:41:54.755Z,100414.13
2022-09-06T14:44:21.692Z,100419.78
2022-09-06T14:46:49.309Z,100412.75
2022-09-06T14:49:16.314Z,100414.25
2022-09-06T14:51:43.588Z,100405.41
2022-09-06T14:54:13.369Z,100409.87
2022-09-06T14:56:42.093Z,100402.09
2022-09-06T14:59:09.442Z,100392.03
2022-09-06T15:01:38.759Z,100406.09
2022-09-06T15:04:09.330Z,100406.09
2022-09-06T15:06:39.318Z,100405.50
2022-09-06T15:09:07.380Z,100404.91
2022-09-06T15:11:45.845Z,100400.03
2022-09-06T15:14:16.444Z,100402.31
2022-09-06T15:16:44.310Z,100401.28
2022-09-06T15:19:11.211Z,100388.84
2022-09-06T15:21:38.113Z,100397.66
2022-09-06T15:24:11.587Z,100401.38
2022-09-06T15:26:39.191Z,100403.78
2022-09-06T15:29:05.996Z,100393.72
2022-09-06T15:31:36.189Z,100392.97
2022-09-06T15:34:03.071Z,100395.16
2022-09-06T15:36:30.374Z,100395.81
2022-09-06T15:39:01.174Z,100392.38
2022-09-06T15:41:31.201Z,100402.47
2022-09-06T15:44:00.342Z,100407.56
2022-09-06T15:46:33.121Z,100411.41
2022-09-06T15:49:01.043Z,100406.16
2022-09-06T15:51:27.913Z,100400.81
2022-09-06T15:53:55.657Z,100399.16
2022-09-06T15:56:22.467Z,100395.59
2022-09-06T15:58:49.303Z,100384.88
2022-09-06T16:01:19.442Z,100379.75
2022-09-06T16:03:49.246Z,100390.84
2022-09-06T16:08:56.677Z,100397.47
2022-09-06T16:11:23.453Z,100398.62
2022-09-06T16:13:50.465Z,100404.50
2022-09-06T16:16:17.787Z,100403.34
2022-09-06T16:18:48.987Z,100406.81
2022-09-06T16:21:21.983Z,100407.75
2022-09-06T16:23:51.528Z,100407.66
2022-09-06T16:26:21.522Z,100407.09
2022-09-06T16:28:50.891Z,100406.81
2022-09-06T16:31:19.084Z,100415.06
2022-09-06T16:33:46.183Z,100409.94
2022-09-06T16:36:14.153Z,100416.34
2022-09-06T16:38:42.077Z,100413.69
2022-09-06T16:41:10.735Z,100412.28
2022-09-06T16:43:37.503Z,100414.19
2022-09-06T16:46:05.331Z,100419.63
2022-09-06T16:48:32.861Z,100420.66
2022-09-06T16:51:12.297Z,100427.28
2022-09-06T16:53:41.688Z,100425.78
2022-09-06T16:56:09.921Z,100428.56
2022-09-06T16:58:37.164Z,100420.78
2022-09-06T17:01:04.081Z,100412.50
2022-09-06T17:03:31.548Z,100411.66
2022-09-06T17:05:58.480Z,100407.06
2022-09-06T17:08:25.399Z,100407.50
2022-09-06T17:10:52.395Z,100415.09
2022-09-06T17:13:19.222Z,100409.69
2022-09-06T17:16:14.261Z,100408.34
2022-09-06T17:18:41.191Z,100400.56
2022-09-06T17:21:08.591Z,100409.31
2022-09-06T17:23:36.610Z,100410.06
2022-09-06T17:26:04.295Z,100408.72
2022-09-06T17:28:35.744Z,100422.84
2022-09-06T17:31:03.958Z,100422.53
2022-09-06T17:33:32.144Z,100433.66
2022-09-06T17:36:27.029Z,100427.97
2022-09-06T17:39:00.979Z,100436.34
2022-09-06T17:41:31.234Z,100434.78
2022-09-06T17:43:58.907Z,100438.13
2022-09-06T17:46:29.092Z,100440.44
2022-09-06T17:48:56.892Z,100435.41
2022-09-06T17:51:24.716Z,100440.19
2022-09-06T17:53:53.154Z,100441.09
2022-09-06T17:56:20.838Z,100443.75
2022-09-06T17:58:59.628Z,100446.22
2022-09-06T18:01:29.724Z,100443.56
2022-09-06T18:03:57.534Z,100441.28
2022-09-06T18:06:26.604Z,100443.06
2022-09-06T18:08:56.155Z,100438.38
2022-09-06T18:11:26.821Z,100431.97
2022-09-06T18:13:59.194Z,100445.50
2022-09-06T18:16:26.887Z,100445.88
2022-09-06T18:18:56.437Z,100452.38
2022-09-06T18:21:24.446Z,100447.03
2022-09-06T18:23:51.523Z,100457.75
2022-09-06T18:26:18.730Z,100454.13
2022-09-06T18:28:45.794Z,100463.09
2022-09-06T18:31:18.350Z,100461.56
2022-09-06T18:33:45.332Z,100463.81
2022-09-06T18:36:13.362Z,100462.69
2022-09-06T18:38:41.262Z,100458.75
2022-09-06T18:41:09.970Z,100470.03
2022-09-06T18:43:40.444Z,100477.16
2022-09-06T18:46:09.991Z,100469.81
2022-09-06T18:48:37.645Z,100482.22
2022-09-06T18:51:11.625Z,100487.28
2022-09-06T18:53:43.985Z,100483.72
2022-09-06T18:56:13.308Z,100485.47
2022-09-06T18:58:43.061Z,100485.97
2022-09-06T19:01:15.221Z,100476.12
2022-09-06T19:03:42.696Z,100479.06
2022-09-06T19:06:15.297Z,100478.72
2022-09-06T19:08:42.901Z,100479.88
2022-09-06T19:11:19.871Z,100480.53
2022-09-06T19:13:50.654Z,100473.97
2022-09-06T19:16:19.309Z,100468.94
2022-09-06T19:18:46.626Z,100473.97
2022-09-06T19:21:22.171Z,100464.59
2022-09-06T19:23:57.434Z,100465.03
2022-09-06T19:26:25.910Z,100467.63
2022-09-06T19:28:58.698Z,100470.31
2022-09-06T19:31:30.746Z,100468.34
2022-09-06T19:33:59.523Z,100472.34
2022-09-06T19:36:29.036Z,100470.63
2022-09-06T19:39:03.494Z,100466.66
2022-09-06T19:41:32.791Z,100461.56
2022-09-06T19:44:00.523Z,100461.59
2022-09-06T19:46:28.074Z,100464.16
2022-09-06T19:48:58.346Z,100465.91
2022-09-06T19:51:25.898Z,100460.41
2022-09-06T19:53:57.617Z,100467.00
2022-09-06T19:56:27.590Z,100472.22
2022-09-06T19:58:56.284Z,100484.41
2022-09-06T20:01:25.329Z,100472.03
2022-09-06T20:03:53.031Z,100466.47
2022-09-06T20:06:19.990Z,100474.94
2022-09-06T20:08:53.464Z,100471.22
2022-09-06T20:11:22.404Z,100466.75
2022-09-06T20:13:49.608Z,100474.37
2022-09-06T20:16:20.489Z,100469.81
2022-09-06T20:18:47.947Z,100476.94
2022-09-06T20:21:15.180Z,100467.37
2022-09-06T20:23:41.931Z,100471.91
2022-09-06T20:26:11.759Z,100461.66
2022-09-06T20:28:38.559Z,100476.97
2022-09-06T20:31:08.564Z,100467.72
2022-09-06T20:33:36.567Z,100478.09
2022-09-06T20:36:07.096Z,100474.16
2022-09-06T20:38:36.345Z,100467.31
2022-09-06T20:41:17.145Z,100480.16
2022-09-06T20:43:44.783Z,100476.19
2022-09-06T20:46:15.108Z,100476.72
2022-09-06T20:48:44.922Z,100470.53
2022-09-06T20:51:19.456Z,100476.97
2022-09-06T20:53:48.945Z,100470.06
2022-09-06T20:56:18.339Z,100465.06
2022-09-06T20:58:56.083Z,100473.12
2022-09-06T21:01:25.384Z,100468.63
2022-09-06T21:03:54.818Z,100469.88
2022-09-06T21:06:22.929Z,100465.06
2022-09-06T21:08:50.547Z,100450.69
2022-09-06T21:11:18.178Z,100451.06
2022-09-06T21:13:48.696Z,100451.75
2022-09-06T21:16:16.827Z,100456.00
2022-09-06T21:18:45.128Z,100459.75
2022-09-06T21:21:12.861Z,100467.59
2022-09-06T21:23:39.703Z,100475.47
2022-09-06T21:26:08.612Z,100481.19
2022-09-06T21:28:38.629Z,100479.12
2022-09-06T21:31:15.095Z,100479.41
2022-09-06T21:33:46.419Z,100482.66
2022-09-06T21:36:16.541Z,100479.34
2022-09-06T21:38:45.843Z,100491.91
2022-09-06T21:41:14.152Z,100491.22
2022-09-06T21:43:41.728Z,100492.72
2022-09-06T21:46:11.346Z,100484.72
2022-09-06T21:48:39.252Z,100484.87
2022-09-06T21:51:10.641Z,100482.81
2022-09-06T21:53:37.680Z,100492.28
2022-09-06T21:56:05.705Z,100494.09
2022-09-06T21:58:33.434Z,100484.56
2022-09-06T22:01:02.196Z,100494.97
2022-09-06T22:03:32.636Z,100482.81
2022-09-06T22:06:00.053Z,100487.75
2022-09-06T22:08:26.998Z,100481.13
2022-09-06T22:10:54.210Z,100490.28
2022-09-06T22:13:21.070Z,100485.78
2022-09-06T22:15:47.964Z,100485.16
2022-09-06T22:18:16.051Z,100480.06
2022-09-06T22:20:46.630Z,100477.03
2022-09-06T22:23:20.126Z,100482.16
2022-09-06T22:25:47.832Z,100484.78
2022-09-06T22:28:18.879Z,100487.22
2022-09-06T22:30:46.093Z,100487.66
2022-09-06T22:33:13.114Z,100486.72
2022-09-06T22:35:39.978Z,100485.84
2022-09-06T22:38:07.812Z,100483.78
2022-09-06T22:40:34.605Z,100484.87
2022-09-06T22:43:02.621Z,100490.44
2022-09-06T22:45:29.947Z,100483.31
2022-09-06T22:47:56.789Z,100484.63
2022-09-06T22:50:23.615Z,100476.75
2022-09-06T22:52:50.420Z,100482.13
2022-09-06T22:55:17.465Z,100484.28
2022-09-06T22:57:44.366Z,100473.66
2022-09-06T23:00:12.086Z,100481.63
2022-09-06T23:02:38.826Z,100476.66
2022-09-06T23:05:05.823Z,100476.84
2022-09-06T23:07:33.229Z,100486.53
2022-09-06T23:10:00.062Z,100483.00
2022-09-06T23:12:28.008Z,100481.94
2022-09-06T23:14:54.978Z,100488.09
2022-09-06T23:17:21.996Z,100487.94
2022-09-06T23:19:48.817Z,100480.22
2022-09-06T23:22:15.562Z,100478.03
2022-09-06T23:24:42.912Z,100478.66
2022-09-06T23:27:09.825Z,100485.78
2022-09-06T23:29:36.762Z,100478.59
2022-09-06T23:32:03.516Z,100479.72
2022-09-06T23:34:30.252Z,100483.44
2022-09-06T23:37:00.177Z,100474.87
2022-09-06T23:39:28.413Z,100483.53
2022-09-06T23:41:56.151Z,100489.09
2022-09-06T23:44:23.534Z,100492.88
2022-09-06T23:46:50.777Z,100484.06
2022-09-06T23:49:17.682Z,100484.66
2022-09-06T23:51:44.644Z,100481.81
2022-09-06T23:54:11.478Z,100475.72
2022-09-06T23:56:38.353Z,100463.00
2022-09-06T23:59:05.132Z,100455.78
